Time;durP1;ratioP1;P1;durP2;ratioP2;P2;SDS_P1;SDS_P2;PMS_P1;PMS_P2;Temp;Humidity;BMP_temperature;BMP_pressure;BME280_temperature;BME280_humidity;BME280_pressure;Samples;Min_cycle;Max_cycle;Signal;HPM_P1;HPM_P2
2022/09/27 00:01:06;;;;;;;2.78;1.20;;;;;;;9.94;nan;98674.72;4933747;28;20127;-67
2022/09/27 00:03:32;;;;;;;2.47;1.38;;;;;;;9.93;nan;98678.34;4919797;28;20563;-65
2022/09/27 00:06:03;;;;;;;2.45;1.20;;;;;;;9.94;nan;98672.06;4926728;29;20035;-65
2022/09/27 00:08:28;;;;;;;1.80;1.13;;;;;;;9.91;nan;98668.97;4932380;29;20428;-67
2022/09/27 00:11:12;;;;;;;2.20;1.30;;;;;;;9.89;nan;98669.19;4922465;28;20036;-67
2022/09/27 00:13:38;;;;;;;1.95;1.30;;;;;;;9.91;nan;98663.69;4932756;28;20047;-65
2022/09/27 00:16:04;;;;;;;2.65;1.15;;;;;;;9.90;nan;98673.44;4925197;28;20040;-65
2022/09/27 00:18:30;;;;;;;3.25;1.60;;;;;;;9.89;nan;98666.56;4931110;28;20035;-65
2022/09/27 00:20:55;;;;;;;1.92;1.10;;;;;;;9.88;nan;98670.19;4915821;29;20035;-67
2022/09/27 00:23:21;;;;;;;2.70;1.20;;;;;;;9.90;nan;98670.00;4937856;28;20046;-65
2022/09/27 00:25:56;;;;;;;3.47;1.55;;;;;;;9.93;nan;98669.59;4940952;28;20141;-65
2022/09/27 00:28:22;;;;;;;3.47;1.17;;;;;;;9.91;nan;98666.34;4921377;28;20496;-65
2022/09/27 00:30:47;;;;;;;1.70;1.10;;;;;;;9.92;nan;98668.00;4916396;29;20129;-65
2022/09/27 00:33:13;;;;;;;1.98;1.23;;;;;;;9.93;nan;98667.78;4917787;29;20031;-65
2022/09/27 00:35:38;;;;;;;2.67;1.20;;;;;;;9.92;nan;98657.44;4921952;28;20454;-65
2022/09/27 00:38:03;;;;;;;3.67;1.20;;;;;;;9.93;nan;98657.22;4917594;29;20050;-65
2022/09/27 00:40:28;;;;;;;1.90;1.17;;;;;;;9.91;nan;98661.88;4936059;29;20043;-65
2022/09/27 00:42:54;;;;;;;2.05;1.30;;;;;;;9.90;nan;98651.53;4918388;29;20627;-65
2022/09/27 00:45:19;;;;;;;2.58;1.17;;;;;;;9.87;nan;98651.91;4925749;28;20043;-65
2022/09/27 00:47:50;;;;;;;3.80;1.23;;;;;;;9.88;nan;98656.19;4919631;28;20047;-65
2022/09/27 00:50:28;;;;;;;2.13;1.30;;;;;;;9.89;nan;98649.88;4920951;28;20075;-65
2022/09/27 00:52:56;;;;;;;2.75;1.40;;;;;;;9.90;nan;98651.53;4918695;29;20417;-65
2022/09/27 00:55:28;;;;;;;1.92;1.20;;;;;;;9.90;nan;98648.88;4925459;28;20090;-65
2022/09/27 00:57:53;;;;;;;;;;;;;;;9.92;nan;98655.59;4928592;28;20298;-65
2022/09/27 01:00:20;;;;;;;2.20;1.20;;;;;;;9.93;nan;98651.13;4928307;28;20225;-65
2022/09/27 01:02:50;;;;;;;1.30;1.00;;;;;;;9.91;nan;98651.31;4915270;29;20055;-65
2022/09/27 01:05:19;;;;;;;2.75;1.10;;;;;;;9.96;nan;98658.66;4925061;28;20036;-65
2022/09/27 01:07:44;;;;;;;1.80;1.20;;;;;;;9.98;nan;98654.81;4933632;29;20071;-67
2022/09/27 01:10:11;;;;;;;2.08;1.20;;;;;;;9.97;nan;98652.38;4932732;28;20082;-65
2022/09/27 01:12:56;;;;;;;2.20;1.00;;;;;;;9.96;nan;98650.72;4934285;28;20031;-65
2022/09/27 01:15:49;;;;;;;2.47;1.20;;;;;;;9.95;nan;98646.47;4928127;29;20066;-65
2022/09/27 01:18:19;;;;;;;1.65;1.20;;;;;;;9.94;nan;98653.59;4945813;28;20039;-68
2022/09/27 01:21:09;;;;;;;1.67;1.20;;;;;;;9.95;nan;98651.75;4924639;29;20071;-67
2022/09/27 01:23:57;;;;;;;3.03;1.50;;;;;;;9.92;nan;98646.88;4932937;28;20435;-67
2022/09/27 01:26:59;;;;;;;1.75;1.17;;;;;;;9.93;nan;98659.84;4929576;28;20039;-67
2022/09/27 01:29:31;;;;;;;1.50;1.10;;;;;;;9.94;nan;98658.88;4936031;28;20051;-67
2022/09/27 01:32:27;;;;;;;2.25;1.30;;;;;;;9.97;nan;98655.81;4927381;28;20047;-67
2022/09/27 01:34:58;;;;;;;2.10;1.20;;;;;;;9.96;nan;98642.81;4938354;28;20040;-67
2022/09/27 01:37:48;;;;;;;3.08;1.33;;;;;;;9.96;nan;98646.28;4918932;29;20424;-67
2022/09/27 01:40:24;;;;;;;1.92;1.10;;;;;;;9.94;nan;98653.59;4914430;28;20087;-67
2022/09/27 01:43:04;;;;;;;3.25;1.30;;;;;;;9.95;nan;98660.47;4919246;29;20054;-67
2022/09/27 01:45:37;;;;;;;1.73;1.10;;;;;;;9.96;nan;98653.38;4922772;28;20123;-67
2022/09/27 01:48:15;;;;;;;2.17;1.33;;;;;;;9.96;nan;98651.56;4918645;29;20048;-67
2022/09/27 01:50:47;;;;;;;2.40;1.15;;;;;;;9.97;nan;98649.75;4924184;28;20043;-67
2022/09/27 01:53:31;;;;;;;1.98;1.17;;;;;;;9.96;nan;98651.56;4926250;28;20040;-67
2022/09/27 01:56:01;;;;;;;2.20;1.05;;;;;;;9.98;nan;98646.06;4924381;29;20050;-67
2022/09/27 01:58:56;;;;;;;2.58;1.20;;;;;;;9.93;nan;98657.22;4919977;29;20407;-67
2022/09/27 02:01:25;;;;;;;2.10;1.33;;;;;;;9.94;nan;98656.22;4926797;28;20074;-67
2022/09/27 02:03:53;;;;;;;2.42;1.30;;;;;;;9.98;nan;98657.44;4919138;29;20464;-67
2022/09/27 02:06:42;;;;;;;1.40;0.85;;;;;;;9.97;nan;98655.81;4929302;28;20032;-67
2022/09/27 02:09:33;;;;;;;1.63;0.93;;;;;;;10.00;nan;98652.78;4924916;29;20425;-67
2022/09/27 02:12:04;;;;;;;1.80;1.17;;;;;;;10.02;nan;98655.25;4924467;29;20044;-67
2022/09/27 02:14:35;;;;;;;2.40;1.25;;;;;;;10.02;nan;98649.16;4921476;29;20528;-67
2022/09/27 02:17:19;;;;;;;2.03;1.10;;;;;;;9.98;nan;98654.81;4916938;28;20408;-66
2022/09/27 02:20:06;;;;;;;2.10;1.25;;;;;;;9.97;nan;98652.38;4922080;28;20247;-66
2022/09/27 02:22:41;;;;;;;1.60;1.10;;;;;;;9.99;nan;98650.38;4918936;29;20080;-67
2022/09/27 02:25:33;;;;;;;1.90;1.10;;;;;;;10.00;nan;98650.16;4922330;28;20032;-67
2022/09/27 02:28:23;;;;;;;1.42;1.10;;;;;;;10.00;nan;98654.63;4922989;29;20056;-67
2022/09/27 02:30:49;;;;;;;2.63;1.10;;;;;;;10.01;nan;98664.19;4921283;28;20065;-67
2022/09/27 02:33:14;;;;;;;4.25;1.40;;;;;;;10.02;nan;98659.72;4922974;28;20039;-67
2022/09/27 02:35:40;;;;;;;4.47;1.50;;;;;;;10.02;nan;98662.38;4930194;28;20099;-67
2022/09/27 02:38:06;;;;;;;2.28;1.48;;;;;;;10.00;nan;98663.34;4921320;28;20044;-67
2022/09/27 02:40:35;;;;;;;2.97;1.58;;;;;;;10.01;nan;98661.56;4921692;28;20092;-67
2022/09/27 02:43:04;;;;;;;3.83;1.70;;;;;;;10.01;nan;98669.47;4924331;29;20067;-67
2022/09/27 02:45:52;;;;;;;2.33;1.55;;;;;;;10.02;nan;98668.44;4929103;29;21129;-67
2022/09/27 02:48:38;;;;;;;4.63;1.73;;;;;;;10.00;nan;98667.81;4923001;29;20044;-67
2022/09/27 02:51:10;;;;;;;3.38;1.52;;;;;;;9.99;nan;98666.22;4922305;28;20043;-67
2022/09/27 02:53:38;;;;;;;2.58;1.52;;;;;;;9.97;nan;98676.94;4920269;29;20517;-67
2022/09/27 02:56:33;;;;;;;3.00;1.70;;;;;;;9.96;nan;98677.13;4928469;28;20039;-67
2022/09/27 02:59:13;;;;;;;4.82;2.05;;;;;;;9.97;nan;98684.06;4922340;28;20083;-67
2022/09/27 03:02:00;;;;;;;4.72;1.80;;;;;;;9.96;nan;98675.34;4924688;28;20406;-67
2022/09/27 03:04:42;;;;;;;2.33;1.50;;;;;;;9.96;nan;98685.06;4918686;29;20059;-67
2022/09/27 03:07:08;;;;;;;2.72;1.63;;;;;;;9.96;nan;98685.91;4941478;28;20031;-67
2022/09/27 03:09:46;;;;;;;3.08;1.70;;;;;;;9.95;nan;98683.44;4930067;28;20131;-67
2022/09/27 03:12:13;;;;;;;4.00;1.77;;;;;;;9.97;nan;98684.88;4942274;28;20440;-67
2022/09/27 03:14:38;;;;;;;4.45;1.90;;;;;;;9.97;nan;98686.69;4951536;28;20508;-67
2022/09/27 03:17:04;;;;;;;2.25;1.40;;;;;;;9.99;nan;98682.06;4940060;29;20127;-67
2022/09/27 03:19:29;;;;;;;3.10;1.70;;;;;;;10.00;nan;98688.94;4939862;28;20357;-67
2022/09/27 03:21:54;;;;;;;3.63;1.58;;;;;;;10.03;nan;98691.19;4929793;28;20457;-67
2022/09/27 03:24:19;;;;;;;3.08;1.40;;;;;;;10.06;nan;98692.63;4932125;29;20063;-67
2022/09/27 03:26:45;;;;;;;2.97;1.67;;;;;;;10.09;nan;98702.81;4927855;28;20048;-67
2022/09/27 03:29:11;;;;;;;3.10;1.77;;;;;;;10.10;nan;98709.72;4938873;28;20123;-67
2022/09/27 03:31:36;;;;;;;4.45;2.17;;;;;;;10.09;nan;98698.34;4931106;28;20385;-67
2022/09/27 03:34:01;;;;;;;3.10;1.40;;;;;;;10.13;nan;98709.34;4939814;29;20044;-67
2022/09/27 03:36:27;;;;;;;3.67;1.63;;;;;;;10.12;nan;98713.81;4942188;28;20045;-67
2022/09/27 03:38:53;;;;;;;2.60;1.50;;;;;;;10.11;nan;98706.91;4924422;28;20382;-67
2022/09/27 03:41:18;;;;;;;3.20;1.63;;;;;;;10.10;nan;98715.00;4925764;28;20509;-67
2022/09/27 03:43:44;;;;;;;3.67;1.70;;;;;;;10.09;nan;98718.66;4931263;28;20115;-67
2022/09/27 03:46:09;;;;;;;2.55;1.58;;;;;;;10.09;nan;98721.31;4923109;28;20032;-67
2022/09/27 03:48:34;;;;;;;2.50;1.50;;;;;;;10.07;nan;98718.03;4927180;28;20110;-67
2022/09/27 03:51:00;;;;;;;3.65;1.60;;;;;;;10.05;nan;98714.78;4919507;29;20035;-67
2022/09/27 03:53:25;;;;;;;2.85;1.60;;;;;;;10.03;nan;98719.44;4929921;29;20035;-67
2022/09/27 03:55:50;;;;;;;5.40;2.10;;;;;;;9.98;nan;98722.66;4919490;29;20131;-67
2022/09/27 03:58:16;;;;;;;3.95;2.10;;;;;;;9.95;nan;98720.41;4917276;28;20036;-67
2022/09/27 04:00:42;;;;;;;2.90;1.65;;;;;;;9.92;nan;98729.53;4928196;29;20044;-67
2022/09/27 04:03:08;;;;;;;3.33;1.70;;;;;;;9.89;nan;98732.56;4916091;29;20042;-67
2022/09/27 04:05:33;;;;;;;4.20;1.90;;;;;;;9.86;nan;98738.19;4937328;28;20031;-67
2022/09/27 04:07:59;;;;;;;5.05;1.73;;;;;;;9.85;nan;98743.69;4947917;28;20118;-66
2022/09/27 04:10:25;;;;;;;2.67;1.60;;;;;;;9.84;nan;98753.41;4919345;29;20044;-67
2022/09/27 04:12:50;;;;;;;3.58;1.80;;;;;;;9.83;nan;98750.97;4921803;29;20075;-67
2022/09/27 04:15:16;;;;;;;2.95;1.70;;;;;;;9.82;nan;98750.16;4923798;28;20039;-67
2022/09/27 04:17:42;;;;;;;2.83;1.60;;;;;;;9.76;nan;98746.44;4928818;28;20120;-67
2022/09/27 04:20:09;;;;;;;3.42;1.70;;;;;;;9.75;nan;98747.47;4928483;28;20506;-67
2022/09/27 04:22:38;;;;;;;3.22;1.48;;;;;;;9.75;nan;98751.94;4927359;28;20517;-66
2022/09/27 04:25:04;;;;;;;3.38;1.75;;;;;;;9.74;nan;98759.00;4922397;28;20130;-66
2022/09/27 04:27:29;;;;;;;3.35;1.70;;;;;;;9.74;nan;98753.72;4921990;28;20123;-66
2022/09/27 04:29:55;;;;;;;2.83;1.60;;;;;;;9.73;nan;98756.56;4918020;29;20024;-66
2022/09/27 04:32:20;;;;;;;2.90;1.60;;;;;;;9.72;nan;98752.28;4930744;28;20451;-66
2022/09/27 04:37:29;;;;;;;3.30;1.80;;;;;;;9.68;nan;98764.25;4937105;28;20043;-66
2022/09/27 04:39:54;;;;;;;2.97;1.38;;;;;;;9.66;nan;98763.63;4924054;28;20428;-66
2022/09/27 04:42:20;;;;;;;3.00;1.80;;;;;;;9.66;nan;98767.06;4928255;28;20127;-66
2022/09/27 04:44:46;;;;;;;4.25;1.77;;;;;;;9.62;nan;98771.09;4920642;28;20087;-66
2022/09/27 04:47:12;;;;;;;3.00;1.70;;;;;;;9.61;nan;98769.47;4916984;29;20067;-66
2022/09/27 04:49:37;;;;;;;4.55;1.60;;;;;;;9.60;nan;98772.28;4925055;29;20158;-66
2022/09/27 04:52:04;;;;;;;2.30;1.60;;;;;;;9.60;nan;98767.81;4921089;28;20055;-67
2022/09/27 04:54:29;;;;;;;3.22;1.60;;;;;;;9.61;nan;98771.28;4927941;28;20052;-66
2022/09/27 04:56:54;;;;;;;3.50;1.77;;;;;;;9.63;nan;98778.00;4924472;29;20063;-66
2022/09/27 04:59:20;;;;;;;2.88;1.90;;;;;;;9.64;nan;98774.34;4921663;28;20308;-66
2022/09/27 05:01:45;;;;;;;2.75;1.50;;;;;;;9.65;nan;98783.09;4920306;28;20322;-66
2022/09/27 05:04:11;;;;;;;2.90;1.50;;;;;;;9.65;nan;98778.63;4926490;28;20120;-66
2022/09/27 05:06:36;;;;;;;2.83;1.40;;;;;;;9.66;nan;98782.09;4936678;28;20055;-67
2022/09/27 05:09:02;;;;;;;2.55;1.33;;;;;;;9.66;nan;98790.00;4929508;29;20568;-66
2022/09/27 05:11:27;;;;;;;4.93;1.65;;;;;;;9.69;nan;98790.44;4942174;28;20043;-66
2022/09/27 05:13:52;;;;;;;3.90;1.90;;;;;;;9.67;nan;98784.53;4933015;28;20042;-66
2022/09/27 05:16:18;;;;;;;3.13;1.42;;;;;;;9.69;nan;98793.06;4933375;28;20045;-66
2022/09/27 05:18:44;;;;;;;3.58;1.98;;;;;;;9.66;nan;98797.94;4936008;28;20063;-66
2022/09/27 05:21:09;;;;;;;3.33;1.52;;;;;;;9.67;nan;98804.81;4932459;28;20067;-66
2022/09/27 05:23:34;;;;;;;2.40;1.40;;;;;;;9.67;nan;98807.47;4930395;28;20067;-66
2022/09/27 05:26:04;;;;;;;2.35;1.35;;;;;;;9.67;nan;98807.47;4921007;29;20191;-66
2022/09/27 05:28:30;;;;;;;2.70;1.50;;;;;;;9.67;nan;98818.84;4932675;28;20402;-66
2022/09/27 05:30:55;;;;;;;4.32;1.58;;;;;;;9.68;nan;98820.50;4926171;28;20087;-66
2022/09/27 05:33:20;;;;;;;2.97;1.52;;;;;;;9.68;nan;98823.13;4933354;28;20039;-66
2022/09/27 05:35:56;;;;;;;2.33;1.40;;;;;;;9.70;nan;98833.47;4923191;29;20043;-66
2022/09/27 05:38:23;;;;;;;2.38;1.50;;;;;;;9.71;nan;98829.84;4926775;29;20043;-66
2022/09/27 05:40:49;;;;;;;2.38;1.55;;;;;;;9.74;nan;98832.91;4924091;28;20468;-66
2022/09/27 05:43:16;;;;;;;2.38;1.42;;;;;;;9.81;nan;98840.09;4927276;28;20038;-66
2022/09/27 05:45:42;;;;;;;3.08;1.30;;;;;;;9.78;nan;98844.75;4925437;28;20092;-66
2022/09/27 05:48:08;;;;;;;2.42;1.33;;;;;;;9.80;nan;98847.19;4930917;28;20035;-67
2022/09/27 05:50:34;;;;;;;4.55;1.58;;;;;;;9.77;nan;98845.75;4935229;28;20043;-66
2022/09/27 05:52:59;;;;;;;2.50;1.20;;;;;;;9.79;nan;98838.44;4924790;28;20044;-66
2022/09/27 05:55:24;;;;;;;1.70;1.15;;;;;;;9.78;nan;98844.75;4931985;28;20040;-66
2022/09/27 05:58:01;;;;;;;2.42;1.02;;;;;;;9.78;nan;98847.38;4922888;28;20593;-66
2022/09/27 06:00:27;;;;;;;1.85;1.10;;;;;;;9.78;nan;98860.56;4939467;28;20139;-66
2022/09/27 06:02:58;;;;;;;2.22;0.90;;;;;;;9.83;nan;98856.56;4921903;28;20036;-66
2022/09/27 06:05:26;;;;;;;1.35;0.73;;;;;;;9.84;nan;98863.47;4924509;29;20036;-66
2022/09/27 06:07:56;;;;;;;1.48;0.90;;;;;;;9.86;nan;98854.34;4927479;29;20043;-66
2022/09/27 06:10:22;;;;;;;2.35;1.15;;;;;;;9.89;nan;98861.91;4929377;28;20453;-66
2022/09/27 06:12:47;;;;;;;2.53;0.90;;;;;;;9.95;nan;98860.34;4928164;28;20125;-66
2022/09/27 06:15:13;;;;;;;3.13;1.00;;;;;;;9.99;nan;98870.34;4925933;29;20122;-66
2022/09/27 06:17:38;;;;;;;2.35;1.05;;;;;;;10.05;nan;98867.94;4925137;29;20059;-66
2022/09/27 06:20:04;;;;;;;1.75;0.88;;;;;;;10.07;nan;98871.22;4923871;28;20036;-66
2022/09/27 06:22:29;;;;;;;1.20;0.80;;;;;;;10.08;nan;98876.31;4937599;28;20034;-66
2022/09/27 06:24:55;;;;;;;1.20;0.90;;;;;;;10.09;nan;98877.13;4930943;28;20040;-66
2022/09/27 06:27:20;;;;;;;1.58;1.08;;;;;;;10.11;nan;98881.22;4932957;28;20047;-66
2022/09/27 06:29:45;;;;;;;2.17;1.00;;;;;;;10.10;nan;98879.56;4915456;29;20525;-66
2022/09/27 06:32:12;;;;;;;2.30;0.90;;;;;;;10.13;nan;98875.72;4927706;28;20067;-67
2022/09/27 06:34:37;;;;;;;2.63;1.08;;;;;;;10.19;nan;98877.63;4917603;28;20051;-66
2022/09/27 06:37:02;;;;;;;1.45;0.95;;;;;;;10.25;nan;98876.03;4919746;29;20233;-66
2022/09/27 06:39:28;;;;;;;2.28;1.10;;;;;;;10.32;nan;98890.16;4936480;28;20039;-66
2022/09/27 06:41:57;;;;;;;2.85;1.30;;;;;;;10.36;nan;98886.94;4920622;29;20497;-66
2022/09/27 06:44:23;;;;;;;1.50;0.90;;;;;;;10.44;nan;98895.72;4926009;28;20043;-66
2022/09/27 06:46:50;;;;;;;2.15;1.10;;;;;;;10.41;nan;98892.47;4925787;28;20047;-66
2022/09/27 06:49:15;;;;;;;1.50;1.02;;;;;;;10.53;nan;98892.75;4929043;28;20418;-66
2022/09/27 06:51:41;;;;;;;2.47;0.90;;;;;;;10.55;nan;98897.88;4928557;29;20048;-66
2022/09/27 06:54:07;;;;;;;1.40;0.90;;;;;;;10.58;nan;98900.97;4921146;28;20066;-67
2022/09/27 06:56:32;;;;;;;1.35;0.70;;;;;;;10.58;nan;98902.75;4930882;28;20039;-66
2022/09/27 07:01:43;;;;;;;1.98;0.93;;;;;;;10.56;nan;98907.44;4928647;28;20051;-66
2022/09/27 07:04:10;;;;;;;3.03;1.10;;;;;;;10.61;nan;98907.69;4918377;28;20378;-67
2022/09/27 07:06:36;;;;;;;1.70;0.80;;;;;;;10.62;nan;98912.75;4928409;28;20059;-66
2022/09/27 07:09:02;;;;;;;1.45;0.88;;;;;;;10.64;nan;98925.78;4922334;29;20493;-66
2022/09/27 07:11:28;;;;;;;1.80;0.75;;;;;;;10.65;nan;98919.47;4925795;28;20536;-66
2022/09/27 07:13:55;;;;;;;1.25;0.80;;;;;;;10.71;nan;98929.31;4923823;28;20040;-66
2022/09/27 07:16:21;;;;;;;1.55;0.82;;;;;;;10.83;nan;98940.16;4919812;28;20648;-67
2022/09/27 07:18:48;;;;;;;1.65;0.80;;;;;;;10.94;nan;98938.81;4922129;28;20054;-66
2022/09/27 07:21:15;;;;;;;0.90;0.70;;;;;;;11.07;nan;98941.56;4914969;29;20120;-66
2022/09/27 07:23:41;;;;;;;2.33;0.95;;;;;;;11.11;nan;98950.75;4926188;28;20035;-67
2022/09/27 07:26:07;;;;;;;1.60;0.80;;;;;;;11.14;nan;98950.34;4922849;28;20697;-67
2022/09/27 07:28:33;;;;;;;1.95;0.75;;;;;;;11.07;nan;98949.50;4918728;28;20194;-65
2022/09/27 07:31:01;;;;;;;1.35;0.88;;;;;;;11.03;nan;98953.53;4928239;28;20417;-66
2022/09/27 07:33:26;;;;;;;1.48;0.60;;;;;;;11.04;nan;98965.75;4921927;28;20048;-66
2022/09/27 07:35:51;;;;;;;1.92;0.82;;;;;;;11.03;nan;98962.28;4928339;28;20050;-68
2022/09/27 07:38:17;;;;;;;2.30;0.93;;;;;;;11.03;nan;98969.41;4927941;28;20064;-66
2022/09/27 07:40:42;;;;;;;0.95;0.70;;;;;;;11.03;nan;98970.22;4919834;29;20051;-67
2022/09/27 07:43:08;;;;;;;1.15;0.65;;;;;;;11.05;nan;98972.66;4931118;28;20365;-67
2022/09/27 07:45:35;;;;;;;1.90;0.95;;;;;;;11.03;nan;98977.34;4919075;28;20122;-67
2022/09/27 07:48:03;;;;;;;1.50;0.90;;;;;;;10.97;nan;98978.94;4928716;28;20047;-66
2022/09/27 07:50:29;;;;;;;1.05;0.70;;;;;;;11.02;nan;98987.09;4925623;28;20040;-67
2022/09/27 07:52:54;;;;;;;2.22;1.00;;;;;;;11.05;nan;98986.69;4928277;28;20123;-67
2022/09/27 07:55:20;;;;;;;3.70;1.15;;;;;;;11.10;nan;98987.97;4930926;28;20044;-65
2022/09/27 07:57:45;;;;;;;2.42;1.00;;;;;;;11.10;nan;98987.97;4917817;29;20039;-65
2022/09/27 08:00:14;;;;;;;1.48;0.95;;;;;;;11.15;nan;98991.66;4926315;28;20036;-65
2022/09/27 08:02:43;;;;;;;1.73;0.80;;;;;;;11.17;nan;98987.00;4924899;28;20035;-65
2022/09/27 08:05:10;;;;;;;1.60;0.80;;;;;;;11.16;nan;98995.94;4922450;28;20042;-67
2022/09/27 08:07:36;;;;;;;3.17;0.80;;;;;;;11.22;nan;98999.63;4921930;28;20051;-67
2022/09/27 08:10:01;;;;;;;1.48;0.75;;;;;;;11.36;nan;99000.56;4921793;28;20044;-67
2022/09/27 08:12:26;;;;;;;1.10;0.70;;;;;;;11.45;nan;99010.78;4924824;28;20051;-67
2022/09/27 08:14:52;;;;;;;1.20;0.63;;;;;;;11.53;nan;99003.69;4917005;29;20043;-67
2022/09/27 08:17:18;;;;;;;1.55;0.70;;;;;;;11.53;nan;99001.06;4923182;28;20122;-67
2022/09/27 08:19:44;;;;;;;1.65;0.70;;;;;;;11.65;nan;99005.59;4923942;28;20127;-67
2022/09/27 08:22:12;;;;;;;1.00;0.70;;;;;;;11.84;nan;98997.94;4925878;28;20472;-67
2022/09/27 08:24:38;;;;;;;1.10;0.70;;;;;;;11.98;nan;99004.16;4932634;28;20059;-67
2022/09/27 08:27:04;;;;;;;1.40;0.60;;;;;;;11.96;nan;99008.81;4916523;28;20294;-67
2022/09/27 08:29:30;;;;;;;1.50;0.60;;;;;;;11.80;nan;99016.06;4924977;28;20032;-67
2022/09/27 08:31:55;;;;;;;1.75;0.60;;;;;;;11.72;nan;99012.75;4919016;28;20569;-67
2022/09/27 08:34:22;;;;;;;1.67;0.50;;;;;;;11.71;nan;99008.50;4924743;28;20031;-66
2022/09/27 08:36:47;;;;;;;0.85;0.60;;;;;;;11.79;nan;99010.97;4925470;28;20031;-66
2022/09/27 08:39:13;;;;;;;1.63;0.73;;;;;;;11.81;nan;99017.69;4926229;28;20106;-66
2022/09/27 08:41:49;;;;;;;1.08;0.50;;;;;;;11.79;nan;99021.56;4915818;29;20038;-66
2022/09/27 08:44:32;;;;;;;1.88;0.70;;;;;;;11.77;nan;99016.44;4916678;28;20106;-67
2022/09/27 08:47:07;;;;;;;1.10;0.60;;;;;;;11.80;nan;99015.25;4925930;28;20039;-66
2022/09/27 08:49:40;;;;;;;1.88;0.70;;;;;;;11.86;nan;99019.75;4928155;28;20043;-66
2022/09/27 08:52:12;;;;;;;0.80;0.70;;;;;;;11.87;nan;99024.91;4919386;28;20248;-67
2022/09/27 08:54:38;;;;;;;1.30;0.73;;;;;;;11.96;nan;99028.16;4914917;29;20043;-66
2022/09/27 08:57:15;;;;;;;1.27;0.60;;;;;;;11.94;nan;99029.38;4922577;29;20552;-66
2022/09/27 09:00:05;;;;;;;0.85;0.55;;;;;;;11.92;nan;99034.91;4919849;29;20540;-67
2022/09/27 09:02:31;;;;;;;1.08;0.68;;;;;;;11.86;nan;99038.28;4927796;28;20069;-66
2022/09/27 09:05:07;;;;;;;1.13;0.70;;;;;;;11.84;nan;99035.84;4918587;29;20485;-66
2022/09/27 09:07:50;;;;;;;1.70;0.75;;;;;;;11.83;nan;99039.50;4918761;28;20043;-67
2022/09/27 09:13:41;;;;;;;1.45;0.70;;;;;;;11.72;nan;99037.41;4932965;28;20053;-67
2022/09/27 09:16:12;;;;;;;2.10;0.90;;;;;;;11.74;nan;99045.16;4930993;28;20485;-66
2022/09/27 09:18:52;;;;;;;3.95;0.80;;;;;;;11.78;nan;99038.47;4922813;28;20515;-66
2022/09/27 09:21:23;;;;;;;1.48;0.80;;;;;;;11.97;nan;99042.25;4929595;28;20075;-66
2022/09/27 09:24:00;;;;;;;1.70;0.80;;;;;;;12.06;nan;99041.91;4911344;29;20056;-66
2022/09/27 09:26:31;;;;;;;2.60;0.90;;;;;;;12.08;nan;99031.06;4914553;29;20442;-66
2022/09/27 09:29:05;;;;;;;2.47;0.90;;;;;;;12.21;nan;99038.28;4923498;29;20063;-66
2022/09/27 09:31:50;;;;;;;0.98;0.77;;;;;;;12.42;nan;99032.00;4918345;29;20511;-67
2022/09/27 09:34:21;;;;;;;2.10;0.90;;;;;;;12.52;nan;99035.09;4922589;28;20047;-67
2022/09/27 09:36:56;;;;;;;;;;;;;;;12.66;nan;99031.44;4926036;28;20063;-67
2022/09/27 09:39:31;;;;;;;1.77;0.95;;;;;;;12.90;nan;99024.72;4914356;28;19981;-66
2022/09/27 09:42:00;;;;;;;1.50;0.93;;;;;;;13.05;nan;99024.53;4921031;28;20123;-67
2022/09/27 09:44:41;;;;;;;1.27;0.80;;;;;;;13.21;nan;99023.28;4920635;28;20052;-67
2022/09/27 09:47:19;;;;;;;1.63;0.90;;;;;;;13.38;nan;99015.75;4922564;28;20409;-67
2022/09/27 09:49:50;;;;;;;2.65;1.10;;;;;;;13.47;nan;99019.81;4922615;28;20095;-67
2022/09/27 09:52:23;;;;;;;2.28;0.95;;;;;;;13.49;nan;99008.97;4914947;28;20044;-67
2022/09/27 09:55:05;;;;;;;2.97;1.10;;;;;;;13.43;nan;99013.28;4920101;28;20118;-67
2022/09/27 09:57:42;;;;;;;2.13;0.90;;;;;;;13.22;nan;99011.66;4922304;28;20106;-67
2022/09/27 10:00:15;;;;;;;4.22;1.17;;;;;;;12.94;nan;99006.56;4914457;28;20493;-67
2022/09/27 10:02:43;;;;;;;2.78;1.38;;;;;;;12.60;nan;99011.03;4928664;28;20039;-67
2022/09/27 10:05:13;;;;;;;2.03;1.00;;;;;;;12.36;nan;99004.47;4917955;29;20330;-65
2022/09/27 10:07:39;;;;;;;5.87;1.50;;;;;;;12.19;nan;98997.91;4926892;28;20046;-66
2022/09/27 10:10:07;;;;;;;3.58;1.30;;;;;;;12.06;nan;99002.16;4924396;28;20287;-66
2022/09/27 10:12:32;;;;;;;5.40;1.85;;;;;;;11.97;nan;99002.53;4923718;28;20409;-67
2022/09/27 10:15:01;;;;;;;4.10;2.33;;;;;;;12.10;nan;98999.91;4929540;28;20042;-66
2022/09/27 10:17:34;;;;;;;3.15;1.80;;;;;;;12.22;nan;99002.78;4918251;28;20115;-67
2022/09/27 10:20:01;;;;;;;3.15;1.48;;;;;;;12.25;nan;99010.34;4928897;28;20028;-67
2022/09/27 10:22:35;;;;;;;2.90;1.30;;;;;;;12.16;nan;99009.72;4921233;28;20501;-66
2022/09/27 10:25:05;;;;;;;2.40;1.27;;;;;;;12.18;nan;99004.19;4925612;29;20122;-66
2022/09/27 10:27:45;;;;;;;2.97;1.15;;;;;;;12.20;nan;99004.81;4924842;28;20044;-66
2022/09/27 10:30:31;;;;;;;2.28;1.20;;;;;;;12.07;nan;99008.25;4917140;28;20659;-67
2022/09/27 10:33:05;;;;;;;2.08;1.20;;;;;;;11.90;nan;99010.44;4925921;28;20477;-66
2022/09/27 10:35:43;;;;;;;3.72;1.60;;;;;;;11.62;nan;99002.53;4925588;29;20322;-65
2022/09/27 10:38:15;;;;;;;6.75;2.58;;;;;;;11.47;nan;99013.25;4933841;28;20035;-66
2022/09/27 10:40:42;;;;;;;4.10;2.00;;;;;;;11.38;nan;99006.47;4918256;29;20108;-66
2022/09/27 10:43:26;;;;;;;3.95;1.90;;;;;;;11.39;nan;99010.75;4925772;28;20568;-66
2022/09/27 10:46:22;;;;;;;2.88;1.65;;;;;;;11.50;nan;99004.91;4917615;28;20074;-66
2022/09/27 10:49:06;;;;;;;2.92;1.40;;;;;;;11.73;nan;99003.78;4933330;28;20401;-66
2022/09/27 10:51:31;;;;;;;2.22;1.25;;;;;;;11.88;nan;99007.16;4916135;29;20055;-66
2022/09/27 10:54:00;;;;;;;2.53;1.50;;;;;;;11.87;nan;99005.53;4921138;28;20146;-66
2022/09/27 10:56:34;;;;;;;4.93;1.40;;;;;;;11.96;nan;99001.69;4919582;28;20620;-66
2022/09/27 10:59:01;;;;;;;2.75;1.30;;;;;;;12.04;nan;98996.22;4933027;28;20043;-66
2022/09/27 11:01:44;;;;;;;2.97;1.40;;;;;;;12.08;nan;99002.78;4927005;29;20040;-66
2022/09/27 11:04:19;;;;;;;1.38;0.90;;;;;;;12.46;nan;98990.81;4936370;28;20393;-67
2022/09/27 11:06:45;;;;;;;1.40;1.00;;;;;;;13.16;nan;98993.91;4926460;28;20501;-66
2022/09/27 11:09:25;;;;;;;1.90;0.90;;;;;;;13.43;nan;98989.38;4927694;29;20059;-66
2022/09/27 11:12:04;;;;;;;1.98;1.02;;;;;;;13.65;nan;98997.91;4936351;28;20039;-66
2022/09/27 11:14:31;;;;;;;2.38;1.20;;;;;;;13.88;nan;98994.75;4921434;28;20099;-66
2022/09/27 11:17:10;;;;;;;3.25;1.23;;;;;;;13.74;nan;98993.97;4918262;28;20063;-67
2022/09/27 11:19:44;;;;;;;2.35;1.20;;;;;;;13.57;nan;98992.81;4931517;28;20091;-66
2022/09/27 11:22:34;;;;;;;2.78;1.13;;;;;;;13.41;nan;98991.44;4937452;28;20039;-66
2022/09/27 11:25:16;;;;;;;1.52;0.90;;;;;;;13.54;nan;98982.63;4937046;29;20505;-66
2022/09/27 11:27:57;;;;;;;2.53;0.90;;;;;;;13.61;nan;98988.75;4917247;28;20098;-66
2022/09/27 11:30:23;;;;;;;1.73;0.80;;;;;;;13.61;nan;98980.78;4934500;28;20043;-66
2022/09/27 11:32:48;;;;;;;3.10;1.00;;;;;;;13.75;nan;98974.38;4935316;28;20044;-66
2022/09/27 11:35:21;;;;;;;1.90;0.90;;;;;;;13.98;nan;98975.69;4935240;28;20035;-66
2022/09/27 11:38:09;;;;;;;2.85;1.10;;;;;;;14.27;nan;98976.16;4923363;29;20751;-66
2022/09/27 11:41:02;;;;;;;4.93;1.10;;;;;;;14.66;nan;98972.47;4921159;28;20406;-66
2022/09/27 11:44:05;;;;;;;3.60;1.40;;;;;;;14.97;nan;98960.09;4919433;29;20043;-66
2022/09/27 11:46:34;;;;;;;2.13;1.10;;;;;;;14.99;nan;98958.88;4854650;29;20064;-67
2022/09/27 11:49:19;;;;;;;1.80;0.90;;;;;;;15.00;nan;98949.03;4861072;29;20046;-66
2022/09/27 11:52:28;;;;;;;1.80;1.00;;;;;;;14.79;nan;98950.25;4905857;29;20081;-66
2022/09/27 11:55:06;;;;;;;2.55;1.25;;;;;;;14.19;nan;98943.47;4914518;29;20175;-66
2022/09/27 11:57:44;;;;;;;2.72;1.05;;;;;;;13.60;nan;98944.59;4926937;29;20043;-66
2022/09/27 12:00:17;;;;;;;2.67;1.30;;;;;;;13.00;nan;98950.03;4930744;28;20036;-66
2022/09/27 12:03:01;;;;;;;3.05;1.35;;;;;;;12.56;nan;98954.13;4928881;28;20067;-66
2022/09/27 12:05:39;;;;;;;3.58;1.55;;;;;;;12.03;nan;98970.72;4925557;28;20036;-66
2022/09/27 12:08:29;;;;;;;2.30;1.40;;;;;;;11.80;nan;98971.06;4915509;29;20036;-67
2022/09/27 12:11:36;;;;;;;3.78;1.40;;;;;;;11.69;nan;98968.97;4932168;28;20043;-66
2022/09/27 12:14:08;;;;;;;4.40;1.40;;;;;;;11.78;nan;98966.97;4847683;29;20040;-66
2022/09/27 12:16:37;;;;;;;2.85;1.20;;;;;;;11.77;nan;98967.97;4923524;29;20044;-66
2022/09/27 12:19:08;;;;;;;1.98;0.95;;;;;;;11.82;nan;98961.09;4925098;28;20027;-66
2022/09/27 12:21:33;;;;;;;3.75;1.00;;;;;;;11.92;nan;98952.78;4918617;29;20044;-67